Time;durP1;ratioP1;P1;durP2;ratioP2;P2;SDS_P1;SDS_P2;PMS_P1;PMS_P2;Temp;Humidity;BMP_temperature;BMP_pressure;BME280_temperature;BME280_humidity;BME280_pressure;Samples;Min_cycle;Max_cycle;Signal;HPM_P1;HPM_P2
2022/11/12 00:00:49;;;;;;;6.07;4.32;;;;;;;9.39;43.48;102767.91;4894618;29;20520;-68
2022/11/12 00:03:37;;;;;;;6.13;4.30;;;;;;;9.37;43.39;102773.41;4893702;29;20421;-68
2022/11/12 00:06:24;;;;;;;5.90;4.03;;;;;;;9.34;43.80;102767.19;4893182;29;20062;-68
2022/11/12 00:09:10;;;;;;;5.85;4.30;;;;;;;9.32;43.61;102769.16;4894006;29;20047;-68
2022/11/12 00:11:57;;;;;;;5.55;4.35;;;;;;;9.31;43.33;102764.66;4893422;29;20051;-68
2022/11/12 00:14:43;;;;;;;6.20;4.30;;;;;;;9.29;43.74;102766.56;4893807;29;20059;-68
2022/11/12 00:17:29;;;;;;;6.25;4.07;;;;;;;9.26;43.39;102758.53;4892455;29;20067;-68
2022/11/12 00:20:17;;;;;;;6.50;4.45;;;;;;;9.26;43.69;102764.88;4894132;29;20059;-68
2022/11/12 00:23:03;;;;;;;5.90;4.28;;;;;;;9.21;43.76;102760.63;4892319;29;20443;-68
2022/11/12 00:25:58;;;;;;;7.20;4.70;;;;;;;9.22;43.63;102765.13;4893606;29;20131;-68
2022/11/12 00:28:44;;;;;;;8.68;6.10;;;;;;;9.17;43.41;102768.06;4892686;29;20112;-68
2022/11/12 00:31:31;;;;;;;7.07;4.68;;;;;;;9.16;43.58;102770.91;4892788;29;20120;-68
2022/11/12 00:34:17;;;;;;;6.45;4.40;;;;;;;9.13;43.70;102768.31;4893826;29;20064;-68
2022/11/12 00:37:05;;;;;;;6.63;4.55;;;;;;;9.13;43.49;102766.47;4892187;29;20564;-67
2022/11/12 00:39:51;;;;;;;7.50;4.40;;;;;;;9.10;43.42;102770.25;4893942;29;20255;-67
2022/11/12 00:42:37;;;;;;;6.20;4.50;;;;;;;9.07;43.74;102769.53;4892484;29;20537;-69
2022/11/12 00:45:24;;;;;;;7.55;4.45;;;;;;;9.05;43.66;102772.34;4893246;29;20075;-69
2022/11/12 00:48:10;;;;;;;5.60;4.15;;;;;;;9.04;43.72;102775.13;4891922;29;20047;-69
2022/11/12 00:51:01;;;;;;;7.75;4.78;;;;;;;9.03;43.80;102774.25;4893455;29;20139;-69
2022/11/12 00:53:49;;;;;;;6.22;4.45;;;;;;;9.01;43.85;102778.91;4892871;29;20139;-69
2022/11/12 00:56:36;;;;;;;6.53;4.80;;;;;;;8.97;43.84;102774.56;4891821;29;20056;-67
2022/11/12 00:59:22;;;;;;;7.15;4.75;;;;;;;8.97;43.85;102779.16;4893380;29;20056;-67
2022/11/12 01:02:09;;;;;;;7.47;4.65;;;;;;;8.94;43.99;102776.56;4891360;29;20080;-67
2022/11/12 01:04:55;;;;;;;5.85;4.55;;;;;;;8.93;43.53;102782.97;4893269;29;20413;-69
2022/11/12 01:07:41;;;;;;;5.82;4.30;;;;;;;8.91;43.48;102783.09;4891446;29;20051;-67
2022/11/12 01:10:29;;;;;;;5.53;4.18;;;;;;;8.91;43.77;102777.63;4893566;29;20059;-66
2022/11/12 01:13:16;;;;;;;7.15;4.70;;;;;;;8.88;43.64;102777.75;4891493;29;20429;-69
2022/11/12 01:16:06;;;;;;;7.25;4.53;;;;;;;8.89;44.00;102787.72;4892514;29;20414;-68
2022/11/12 01:18:54;;;;;;;6.43;4.63;;;;;;;8.86;44.21;102787.88;4892732;29;20056;-67
2022/11/12 01:21:43;;;;;;;6.88;4.38;;;;;;;8.85;43.76;102788.81;4891516;29;20068;-66
2022/11/12 01:24:29;;;;;;;7.15;4.25;;;;;;;8.82;43.64;102789.00;4893199;29;20517;-67
2022/11/12 01:27:17;;;;;;;6.30;4.38;;;;;;;8.81;44.11;102789.97;4891522;29;20071;-67
2022/11/12 01:30:04;;;;;;;7.35;4.45;;;;;;;8.80;43.91;102787.31;4892896;29;20113;-67
2022/11/12 01:32:51;;;;;;;7.57;4.30;;;;;;;8.78;43.70;102786.47;4891852;29;20176;-67
2022/11/12 01:35:37;;;;;;;6.43;4.20;;;;;;;8.76;43.94;102785.66;4892703;29;20068;-67
2022/11/12 01:38:23;;;;;;;6.80;4.45;;;;;;;8.75;44.21;102781.19;4892132;29;20136;-67
2022/11/12 01:41:12;;;;;;;6.95;4.40;;;;;;;8.74;43.59;102771.22;4891531;29;20139;-67
2022/11/12 01:44:11;;;;;;;7.65;4.85;;;;;;;8.73;44.15;102767.63;4892499;29;20055;-67
2022/11/12 01:47:04;;;;;;;6.35;4.20;;;;;;;8.71;44.16;102775.00;4891901;29;20071;-67
2022/11/12 01:49:54;;;;;;;6.90;4.50;;;;;;;8.68;44.14;102766.94;4892425;29;20059;-67
2022/11/12 01:52:46;;;;;;;7.07;4.38;;;;;;;8.68;44.00;102761.47;4891985;29;20642;-66
2022/11/12 01:55:36;;;;;;;5.10;3.60;;;;;;;8.67;44.26;102766.06;4895849;29;20054;-68
2022/11/12 01:58:26;;;;;;;6.88;4.22;;;;;;;8.65;43.84;102772.56;4896327;29;20518;-68
2022/11/12 02:01:15;;;;;;;5.88;4.28;;;;;;;8.64;44.13;102758.03;4894386;29;20181;-68
2022/11/12 02:04:01;;;;;;;6.95;4.60;;;;;;;8.60;44.29;102753.66;4900416;29;20054;-68
2022/11/12 02:06:49;;;;;;;7.00;4.20;;;;;;;8.60;43.70;102766.44;4904303;29;20063;-70
2022/11/12 02:09:36;;;;;;;6.10;4.43;;;;;;;8.58;43.74;102757.47;4898977;29;20795;-68
2022/11/12 02:15:40;;;;;;;6.72;4.40;;;;;;;8.54;43.99;102755.81;4841890;29;20053;-69
2022/11/12 02:18:28;;;;;;;6.32;4.05;;;;;;;8.53;43.99;102759.50;4902981;29;20148;-69
2022/11/12 02:21:20;;;;;;;6.45;4.28;;;;;;;8.53;44.19;102754.94;4892408;29;20112;-69
2022/11/12 02:24:33;;;;;;;6.30;4.05;;;;;;;8.48;44.50;102754.28;4906813;29;20509;-69
2022/11/12 02:27:20;;;;;;;6.03;4.20;;;;;;;8.44;44.03;102766.28;4898957;29;20593;-69
2022/11/12 02:30:07;;;;;;;5.60;4.07;;;;;;;8.47;43.76;102768.00;4904519;29;20139;-69
2022/11/12 02:32:54;;;;;;;7.90;4.63;;;;;;;8.46;43.67;102766.22;4899093;29;20059;-68
2022/11/12 02:35:40;;;;;;;6.60;4.32;;;;;;;8.45;43.87;102768.06;4903343;29;20180;-69
2022/11/12 02:38:27;;;;;;;7.07;4.85;;;;;;;8.44;44.05;102765.41;4904666;29;20177;-69
2022/11/12 02:41:14;;;;;;;7.55;4.70;;;;;;;8.41;43.76;102761.00;4906479;29;20051;-69
2022/11/12 02:44:01;;;;;;;6.78;4.53;;;;;;;8.40;43.76;102767.41;4900971;29;20050;-69
2022/11/12 02:46:47;;;;;;;7.88;4.35;;;;;;;8.38;43.64;102768.44;4898011;29;20059;-69
2022/11/12 02:49:33;;;;;;;7.05;4.40;;;;;;;8.38;43.74;102774.78;4910126;29;20182;-69
2022/11/12 02:52:20;;;;;;;7.65;4.20;;;;;;;8.36;43.88;102782.16;4911547;29;20172;-68
2022/11/12 02:55:09;;;;;;;7.03;4.43;;;;;;;8.36;43.95;102773.09;4895212;29;20059;-69
2022/11/12 02:57:58;;;;;;;7.22;4.10;;;;;;;8.34;44.03;102774.03;4906325;29;20070;-68
2022/11/12 03:00:44;;;;;;;5.43;4.28;;;;;;;8.31;43.99;102774.19;4905595;29;20111;-69
2022/11/12 03:03:31;;;;;;;5.80;4.00;;;;;;;8.29;43.93;102772.50;4901300;29;20455;-68
2022/11/12 03:06:17;;;;;;;5.55;4.00;;;;;;;8.28;43.76;102776.19;4902510;29;20116;-70
2022/11/12 03:09:04;;;;;;;7.35;4.38;;;;;;;8.25;44.25;102769.06;4901148;29;20155;-69
2022/11/12 03:11:51;;;;;;;6.45;4.15;;;;;;;8.25;43.87;102770.88;4906988;29;20059;-69
2022/11/12 03:14:38;;;;;;;7.00;4.80;;;;;;;8.22;43.97;102774.63;4894211;29;20596;-68
2022/11/12 03:17:24;;;;;;;5.45;3.85;;;;;;;8.21;43.95;102764.69;4908833;29;20094;-68
2022/11/12 03:20:11;;;;;;;5.88;4.13;;;;;;;8.21;43.77;102771.97;4899668;29;20063;-68
2022/11/12 03:23:00;;;;;;;5.47;4.00;;;;;;;8.21;43.88;102761.94;4907903;29;20144;-69
2022/11/12 03:25:46;;;;;;;6.43;4.00;;;;;;;8.19;43.72;102758.41;4907218;29;20059;-69
2022/11/12 03:28:34;;;;;;;6.68;4.05;;;;;;;8.20;43.91;102753.84;4906962;29;20051;-69
2022/11/12 03:31:21;;;;;;;7.78;4.30;;;;;;;8.17;43.84;102752.16;4900572;29;20446;-69
2022/11/12 03:34:07;;;;;;;6.50;3.80;;;;;;;8.17;43.86;102756.72;4900563;29;20131;-67
2022/11/12 03:36:53;;;;;;;5.22;4.00;;;;;;;8.16;44.18;102747.66;4904214;29;20138;-68
2022/11/12 03:39:40;;;;;;;6.80;4.07;;;;;;;8.15;43.88;102743.16;4901242;29;20059;-68
2022/11/12 03:42:26;;;;;;;5.80;3.70;;;;;;;8.15;44.02;102748.63;4898613;29;20456;-68
2022/11/12 03:45:14;;;;;;;5.30;3.63;;;;;;;8.16;43.81;102753.13;4899349;29;20706;-68
2022/11/12 03:48:01;;;;;;;5.60;3.80;;;;;;;8.13;44.00;102750.53;4897175;29;20055;-68
2022/11/12 03:50:47;;;;;;;6.45;3.97;;;;;;;8.12;44.22;102753.28;4899782;29;20579;-68
2022/11/12 03:53:33;;;;;;;6.30;4.15;;;;;;;8.11;44.00;102746.94;4904399;29;20047;-68
2022/11/12 03:56:20;;;;;;;5.80;3.85;;;;;;;8.11;44.11;102740.59;4893307;29;20155;-69
2022/11/12 03:59:07;;;;;;;5.28;3.95;;;;;;;8.08;43.91;102733.47;4905418;29;20063;-69
2022/11/12 04:01:55;;;;;;;5.10;3.67;;;;;;;8.09;43.84;102734.34;4907259;29;20290;-70
2022/11/12 04:10:49;;;;;;;5.53;3.90;;;;;;;8.02;43.86;102741.91;4903437;29;20056;-69
2022/11/12 04:13:37;;;;;;;5.28;3.70;;;;;;;8.03;44.27;102731.91;4901258;29;20120;-70
2022/11/12 04:22:32;;;;;;;5.82;3.58;;;;;;;7.94;43.91;102730.47;4895414;29;19930;-69
2022/11/12 04:28:22;;;;;;;7.07;3.80;;;;;;;7.94;43.97;102733.22;4902182;29;20052;-69
2022/11/12 04:31:08;;;;;;;5.47;3.22;;;;;;;7.94;43.77;102730.47;4906731;29;20047;-69
2022/11/12 04:34:27;;;;;;;5.28;3.78;;;;;;;7.92;43.83;102725.13;4910334;29;20054;-69
2022/11/12 04:37:03;;;;;;;4.93;3.50;;;;;;;7.93;43.82;102731.44;4900831;29;20058;-69
2022/11/12 04:39:49;;;;;;;6.25;3.92;;;;;;;7.90;43.96;102720.69;4901064;29;20059;-69
2022/11/12 04:45:41;;;;;;;6.30;3.90;;;;;;;7.86;43.92;102711.75;4899604;29;20063;-69
2022/11/12 04:48:28;;;;;;;5.18;3.63;;;;;;;7.85;43.99;102711.84;4903323;29;20561;-69
2022/11/12 04:54:16;;;;;;;6.47;3.83;;;;;;;7.83;43.91;102711.94;4892920;29;20059;-69
2022/11/12 04:57:03;;;;;;;5.43;3.42;;;;;;;7.81;43.95;102715.66;4909378;29;20127;-69
2022/11/12 04:59:49;;;;;;;5.07;3.75;;;;;;;7.81;44.06;102723.84;4893366;29;20104;-69
2022/11/12 05:02:35;;;;;;;5.65;4.07;;;;;;;7.79;43.95;102713.00;4899706;29;20051;-70
2022/11/12 05:05:21;;;;;;;6.50;3.83;;;;;;;7.78;43.93;102713.06;4909809;29;20629;-69
2022/11/12 05:08:08;;;;;;;5.72;3.83;;;;;;;7.77;43.86;102697.69;4893676;29;20703;-70
2022/11/12 05:10:55;;;;;;;5.55;4.10;;;;;;;7.77;44.15;102705.84;4897102;29;20865;-69
2022/11/12 05:13:42;;;;;;;5.22;3.58;;;;;;;7.74;43.84;102698.72;4899439;29;20051;-69
2022/11/12 05:16:28;;;;;;;5.78;3.63;;;;;;;7.72;44.28;102688.84;4901641;29;20047;-69
2022/11/12 05:19:14;;;;;;;5.80;3.97;;;;;;;7.72;44.20;102695.19;4903232;29;20445;-69
2022/11/12 05:22:07;;;;;;;5.15;3.90;;;;;;;7.71;44.00;102679.78;4908609;29;20063;-69
2022/11/12 05:25:12;;;;;;;5.18;3.30;;;;;;;7.69;44.19;102686.25;4903216;29;20055;-70
2022/11/12 05:28:00;;;;;;;4.65;3.53;;;;;;;7.71;44.05;102677.06;4894640;29;20059;-69
2022/11/12 05:30:48;;;;;;;6.05;3.60;;;;;;;7.69;44.01;102680.78;4904060;29;20059;-69
2022/11/12 05:33:34;;;;;;;5.65;3.80;;;;;;;7.66;44.10;102676.41;4904942;29;20267;-69
2022/11/12 05:36:21;;;;;;;8.27;4.03;;;;;;;7.65;44.25;102662.84;4901430;29;21080;-69
2022/11/12 05:39:08;;;;;;;5.38;3.60;;;;;;;7.64;44.10;102661.94;4907880;29;20067;-69
2022/11/12 05:41:54;;;;;;;6.82;3.65;;;;;;;7.63;44.25;102662.00;4900230;29;20051;-69
2022/11/12 05:45:00;;;;;;;6.65;3.67;;;;;;;7.62;44.48;102671.13;4898484;29;20059;-69
2022/11/12 05:47:47;;;;;;;6.43;3.80;;;;;;;7.63;44.54;102675.63;4902259;29;20280;-69
2022/11/12 05:50:34;;;;;;;5.45;3.78;;;;;;;7.61;44.24;102677.53;4900879;29;20095;-69
2022/11/12 05:53:40;;;;;;;5.75;3.60;;;;;;;7.61;44.41;102674.81;4897486;29;20095;-69
2022/11/12 05:56:27;;;;;;;6.45;3.72;;;;;;;7.61;44.44;102670.25;4893199;29;20047;-69
2022/11/12 05:59:14;;;;;;;6.82;3.80;;;;;;;7.62;44.44;102671.13;4901761;29;20090;-69
2022/11/12 06:02:01;;;;;;;5.40;3.60;;;;;;;7.62;44.76;102661.13;4901959;29;20469;-69
2022/11/12 06:04:48;;;;;;;5.80;3.80;;;;;;;7.61;44.73;102667.53;4911838;29;20203;-69
2022/11/12 06:07:34;;;;;;;6.28;3.92;;;;;;;7.61;44.69;102677.53;4897583;29;20067;-69
2022/11/12 06:10:21;;;;;;;5.95;3.67;;;;;;;7.61;44.45;102681.16;4902933;29;20048;-69
2022/11/12 06:13:07;;;;;;;6.15;4.32;;;;;;;7.61;44.63;102681.16;4904282;29;20143;-69
2022/11/12 06:15:55;;;;;;;5.85;3.80;;;;;;;7.63;44.71;102681.97;4901107;29;20524;-69
2022/11/12 06:18:42;;;;;;;6.80;3.95;;;;;;;7.62;44.37;102693.84;4902725;29;20055;-69
2022/11/12 06:21:29;;;;;;;6.60;4.50;;;;;;;7.60;44.25;102698.44;4903304;29;20540;-69
2022/11/12 06:24:15;;;;;;;6.05;3.75;;;;;;;7.59;44.50;102702.16;4902932;29;21718;-69
2022/11/12 06:27:02;;;;;;;5.63;3.60;;;;;;;7.57;44.23;102699.50;4902224;29;20471;-69
2022/11/12 06:29:48;;;;;;;6.35;4.10;;;;;;;7.57;44.63;102695.91;4902191;29;20553;-69
2022/11/12 06:32:35;;;;;;;6.05;3.70;;;;;;;7.53;44.75;102692.41;4896084;29;20123;-69
2022/11/12 06:35:23;;;;;;;6.55;4.07;;;;;;;7.54;44.13;102707.81;4904517;29;20055;-70
2022/11/12 06:38:09;;;;;;;6.45;4.07;;;;;;;7.52;44.46;102703.38;4900282;29;20059;-69
2022/11/12 06:40:56;;;;;;;6.53;4.00;;;;;;;7.51;44.61;102710.69;4902566;29;20634;-69
2022/11/12 06:43:42;;;;;;;6.28;3.95;;;;;;;7.52;44.54;102719.72;4900192;29;20051;-69
2022/11/12 06:46:29;;;;;;;5.80;4.45;;;;;;;7.49;44.63;102712.59;4911232;29;20047;-69
2022/11/12 06:49:15;;;;;;;5.97;4.00;;;;;;;7.49;44.59;102719.88;4903497;29;21600;-69
2022/11/12 06:52:03;;;;;;;7.28;4.50;;;;;;;7.49;44.47;102723.50;4903642;29;20063;-69
2022/11/12 06:54:50;;;;;;;6.78;4.55;;;;;;;7.46;44.70;102729.06;4912681;29;20437;-69
2022/11/12 06:57:36;;;;;;;5.80;3.97;;;;;;;7.46;44.48;102728.19;4898619;29;20058;-69
2022/11/12 07:00:23;;;;;;;6.45;3.85;;;;;;;7.45;44.76;102740.03;4911764;29;20055;-69
2022/11/12 07:03:10;;;;;;;6.35;4.05;;;;;;;7.45;44.57;102740.03;4896641;29;20136;-70
2022/11/12 07:05:56;;;;;;;5.93;3.63;;;;;;;7.42;44.71;102749.25;4903319;29;20180;-69
2022/11/12 07:08:45;;;;;;;6.43;4.38;;;;;;;7.45;44.50;102750.91;4897087;29;20184;-70
2022/11/12 07:11:31;;;;;;;6.28;3.95;;;;;;;7.42;44.77;102742.91;4897281;29;20057;-69
2022/11/12 07:14:18;;;;;;;8.85;4.50;;;;;;;7.43;44.62;102756.47;4897933;29;20051;-69
2022/11/12 07:17:04;;;;;;;7.68;4.47;;;;;;;7.41;44.92;102747.47;4898548;29;20156;-69
2022/11/12 07:19:50;;;;;;;7.00;4.28;;;;;;;7.42;44.93;102751.97;4905623;29;20564;-69
2022/11/12 07:22:37;;;;;;;6.82;4.50;;;;;;;7.41;44.73;102752.91;4903552;29;20172;-69
2022/11/12 07:25:25;;;;;;;6.63;4.60;;;;;;;7.42;45.08;102749.25;4905604;29;20056;-68
2022/11/12 07:28:11;;;;;;;7.28;5.22;;;;;;;7.40;45.08;102747.53;4905236;29;20059;-68
2022/11/12 07:30:59;;;;;;;7.20;4.78;;;;;;;7.42;45.00;102748.34;4900636;29;20059;-69
2022/11/12 07:33:47;;;;;;;7.22;4.50;;;;;;;7.40;45.14;102745.69;4900357;29;20059;-69
2022/11/12 07:36:33;;;;;;;6.88;4.72;;;;;;;7.40;45.00;102747.53;4897458;29;20573;-69
2022/11/12 07:39:20;;;;;;;6.70;4.45;;;;;;;7.41;45.17;102746.59;4896374;29;20603;-69
2022/11/12 07:42:08;;;;;;;6.60;4.38;;;;;;;7.41;45.28;102747.47;4907941;29;20106;-69
2022/11/12 07:44:54;;;;;;;7.43;4.88;;;;;;;7.41;45.42;102739.28;4894337;29;20056;-68
2022/11/12 07:47:40;;;;;;;8.60;4.65;;;;;;;7.42;45.33;102743.78;4903676;29;20115;-68
2022/11/12 07:50:27;;;;;;;6.60;4.50;;;;;;;7.43;45.54;102737.41;4912048;29;20059;-69
2022/11/12 07:53:13;;;;;;;7.65;4.40;;;;;;;7.45;45.43;102745.47;4899234;29;20055;-69
2022/11/12 07:56:01;;;;;;;8.00;4.90;;;;;;;7.47;45.75;102744.47;4902735;29;20062;-69
2022/11/12 07:58:49;;;;;;;7.18;4.72;;;;;;;7.50;45.86;102748.91;4893397;29;20052;-69
2022/11/12 08:01:38;;;;;;;6.50;4.20;;;;;;;7.52;45.94;102749.69;4901897;29;20653;-70
2022/11/12 08:04:24;;;;;;;7.22;4.50;;;;;;;7.52;45.81;102747.84;4903474;29;20062;-70
2022/11/12 08:07:11;;;;;;;6.25;4.40;;;;;;;7.55;45.84;102753.19;4898499;29;20051;-70
2022/11/12 08:09:58;;;;;;;6.63;4.07;;;;;;;7.57;45.81;102755.84;4902999;29;20060;-70
2022/11/12 08:12:44;;;;;;;6.97;4.45;;;;;;;7.61;45.83;102752.00;4895544;29;20055;-70
2022/11/12 08:15:32;;;;;;;6.07;4.65;;;;;;;7.64;45.84;102737.38;4906444;29;20580;-69
2022/11/12 08:18:19;;;;;;;6.68;4.10;;;;;;;7.64;45.81;102743.69;4898580;29;20525;-70
2022/11/12 08:21:07;;;;;;;5.82;3.67;;;;;;;7.70;46.03;102750.69;4897451;29;20059;-69
2022/11/12 08:23:53;;;;;;;6.90;4.93;;;;;;;7.71;46.13;102753.38;4906763;29;20059;-70
2022/11/12 08:26:40;;;;;;;5.07;3.55;;;;;;;7.76;46.29;102753.16;4903638;29;20054;-68
2022/11/12 08:29:26;;;;;;;5.90;3.50;;;;;;;7.80;46.10;102761.13;4892864;29;20063;-69
2022/11/12 08:32:14;;;;;;;5.72;4.18;;;;;;;7.86;46.73;102759.94;4894952;29;20176;-69
2022/11/12 08:35:01;;;;;;;7.50;3.92;;;;;;;7.91;46.26;102763.38;4906049;29;20818;-69
2022/11/12 08:37:47;;;;;;;6.38;4.10;;;;;;;7.98;46.85;102759.41;4897118;29;20155;-70
2022/11/12 08:40:33;;;;;;;5.15;3.78;;;;;;;8.06;46.57;102754.47;4902010;29;20059;-70
2022/11/12 08:43:20;;;;;;;5.35;3.70;;;;;;;8.15;46.45;102759.53;4902324;29;20067;-70
2022/11/12 08:46:06;;;;;;;6.40;3.97;;;;;;;8.25;46.99;102760.88;4907636;29;20056;-70
2022/11/12 08:48:54;;;;;;;5.72;3.30;;;;;;;8.38;46.75;102761.16;4898164;29;20052;-70
2022/11/12 08:51:40;;;;;;;5.07;3.40;;;;;;;8.47;47.09;102766.16;4905502;29;20056;-70
2022/11/12 08:54:26;;;;;;;5.15;3.67;;;;;;;8.60;47.01;102760.97;4894924;29;20083;-70
2022/11/12 08:57:13;;;;;;;5.10;3.35;;;;;;;8.74;47.06;102749.38;4891764;29;20426;-69
2022/11/12 09:00:00;;;;;;;5.07;3.42;;;;;;;8.88;47.18;102750.47;4904191;29;20088;-69
2022/11/12 09:02:52;;;;;;;5.53;3.35;;;;;;;9.01;46.88;102746.13;4900363;29;20108;-70
2022/11/12 09:05:40;;;;;;;4.95;3.30;;;;;;;9.20;46.90;102742.47;4907712;29;20469;-71
2022/11/12 09:08:27;;;;;;;5.40;3.35;;;;;;;9.34;46.90;102748.97;4900062;29;20054;-70
2022/11/12 09:11:14;;;;;;;6.82;3.20;;;;;;;9.49;46.79;102760.09;4910513;29;20520;-69
2022/11/12 09:14:00;;;;;;;4.90;2.92;;;;;;;9.64;46.63;102771.09;4902797;29;20572;-68
2022/11/12 09:16:47;;;;;;;4.38;2.80;;;;;;;9.79;46.25;102766.66;4901047;29;20059;-68
2022/11/12 09:19:33;;;;;;;4.65;2.67;;;;;;;9.94;46.45;102770.41;4903155;29;20120;-68
2022/11/12 09:22:28;;;;;;;;;;;;;;;9.80;46.61;102769.31;4902897;29;20584;-68
2022/11/12 09:25:14;;;;;;;3.83;2.42;;;;;;;10.19;46.15;102760.75;4901522;29;19939;-68
2022/11/12 09:28:06;;;;;;;4.97;2.80;;;;;;;10.40;45.78;102764.13;4900006;29;20063;-68
2022/11/12 09:30:53;;;;;;;4.57;3.20;;;;;;;10.54;45.60;102755.16;4895287;29;20100;-68
2022/11/12 09:33:40;;;;;;;4.80;2.85;;;;;;;10.68;45.49;102748.88;4904201;29;20095;-68
2022/11/12 09:36:26;;;;;;;4.45;2.78;;;;;;;10.82;45.65;102747.09;4903511;29;20083;-68
2022/11/12 09:39:14;;;;;;;4.30;2.67;;;;;;;10.97;45.22;102753.56;4903586;29;20047;-68
2022/11/12 09:42:07;;;;;;;5.03;2.78;;;;;;;11.11;44.32;102752.72;4906183;29;20067;-68
2022/11/12 09:44:59;;;;;;;4.10;2.63;;;;;;;11.20;44.26;102749.44;4914435;29;20058;-70
2022/11/12 09:47:52;;;;;;;5.28;2.88;;;;;;;11.33;44.56;102751.31;4900693;29;20051;-71
2022/11/12 09:50:47;;;;;;;4.10;2.78;;;;;;;11.44;43.53;102760.75;4908919;29;20059;-71
2022/11/12 09:53:40;;;;;;;4.07;2.70;;;;;;;11.53;44.05;102751.97;4913265;29;20581;-72
2022/11/12 09:56:31;;;;;;;4.32;2.70;;;;;;;11.60;43.91;102754.25;4902430;29;20128;-71
2022/11/12 09:59:18;;;;;;;4.78;2.65;;;;;;;11.68;43.68;102749.19;4902611;29;20414;-68
2022/11/12 10:02:23;;;;;;;4.63;2.78;;;;;;;11.78;42.72;102743.13;4907817;29;20067;-69
2022/11/12 10:05:22;;;;;;;4.30;2.88;;;;;;;11.84;42.71;102745.47;4914317;29;20525;-69
2022/11/12 10:08:28;;;;;;;3.90;2.53;;;;;;;11.91;42.82;102745.00;4913755;29;20051;-69
2022/11/12 10:12:30;;;;;;;4.32;2.83;;;;;;;11.97;42.62;102744.59;4907762;29;20165;-70
2022/11/12 10:18:12;;;;;;;4.05;2.55;;;;;;;12.09;42.58;102734.72;4901056;29;20529;-69
2022/11/12 10:21:06;;;;;;;3.55;2.58;;;;;;;12.15;42.53;102736.16;4909616;29;20845;-70
2022/11/12 10:23:53;;;;;;;3.85;2.53;;;;;;;12.18;43.10;102727.75;4902856;29;20064;-71
2022/11/12 10:26:40;;;;;;;4.78;2.83;;;;;;;12.24;42.60;102732.81;4907374;29;20616;-71
2022/11/12 10:29:33;;;;;;;4.10;2.63;;;;;;;12.31;42.78;102723.19;4904501;29;20048;-73
2022/11/12 10:32:21;;;;;;;4.57;3.10;;;;;;;12.35;43.04;102736.66;4908931;29;20727;-73
2022/11/12 10:35:09;;;;;;;4.30;2.88;;;;;;;12.41;42.58;102728.00;4914436;29;20058;-72
2022/11/12 10:37:59;;;;;;;4.50;2.90;;;;;;;12.49;42.00;102708.25;4906521;29;20102;-71
2022/11/12 10:40:45;;;;;;;4.43;2.80;;;;;;;12.53;42.33;102712.59;4908726;29;20153;-71
2022/11/12 10:43:32;;;;;;;4.43;2.60;;;;;;;12.59;42.78;102709.41;4913882;29;20751;-71
2022/11/12 10:46:20;;;;;;;3.92;2.65;;;;;;;12.66;42.25;102710.78;4901046;29;20051;-71
2022/11/12 10:49:23;;;;;;;3.47;2.60;;;;;;;12.72;42.06;102715.00;4905898;29;20426;-71
2022/11/12 10:52:21;;;;;;;3.90;2.33;;;;;;;12.80;41.39;102715.34;4898399;29;20059;-71
2022/11/12 10:55:16;;;;;;;3.75;2.45;;;;;;;12.86;41.88;102714.97;4905919;29;20138;-71
2022/11/12 10:58:15;;;;;;;4.22;2.63;;;;;;;12.91;42.06;102706.38;4901653;29;20054;-71
2022/11/12 11:01:03;;;;;;;4.45;2.53;;;;;;;12.94;42.46;102696.06;4905603;29;20051;-71
2022/11/12 11:03:55;;;;;;;3.97;2.60;;;;;;;13.01;41.69;102705.66;4906084;29;20626;-71
2022/11/12 11:06:42;;;;;;;4.13;2.70;;;;;;;13.04;41.82;102701.78;4902212;29;20144;-71
2022/11/12 11:09:29;;;;;;;4.00;2.70;;;;;;;13.07;41.90;102690.59;4895817;29;20798;-69
2022/11/12 11:12:23;;;;;;;4.25;2.55;;;;;;;13.13;41.48;102682.81;4906136;29;20059;-68
2022/11/12 11:15:21;;;;;;;4.53;2.67;;;;;;;13.18;41.52;102677.00;4905079;29;20071;-69
2022/11/12 11:18:11;;;;;;;5.18;2.97;;;;;;;13.19;41.97;102678.78;4898706;29;20103;-68
2022/11/12 11:21:06;;;;;;;4.70;2.50;;;;;;;13.24;41.50;102684.81;4905730;29;20553;-69
2022/11/12 11:23:57;;;;;;;4.05;2.50;;;;;;;13.26;41.54;102680.09;4901111;29;20418;-69
2022/11/12 11:26:54;;;;;;;3.90;2.55;;;;;;;13.30;40.99;102669.75;4908304;29;20172;-69
2022/11/12 11:29:57;;;;;;;3.85;2.67;;;;;;;13.34;41.50;102676.81;4903646;29;20180;-69
2022/11/12 11:33:03;;;;;;;4.30;2.80;;;;;;;13.33;41.02;102664.91;4905041;29;20226;-69
2022/11/12 11:35:59;;;;;;;4.15;2.65;;;;;;;13.41;41.54;102673.50;4907363;29;20669;-68
2022/11/12 11:38:58;;;;;;;4.88;2.50;;;;;;;13.46;41.24;102673.16;4897864;29;20079;-68
2022/11/12 11:41:57;;;;;;;3.30;2.25;;;;;;;13.50;41.10;102675.59;4899425;29;20063;-69
2022/11/12 11:44:51;;;;;;;3.97;2.17;;;;;;;13.55;41.03;102659.63;4903479;29;20043;-69
2022/11/12 11:47:45;;;;;;;4.22;2.60;;;;;;;13.61;41.03;102661.97;4908848;29;20242;-70
2022/11/12 11:50:59;;;;;;;3.60;2.35;;;;;;;13.68;41.20;102658.81;4907049;29;20135;-71
2022/11/12 11:53:59;;;;;;;4.20;2.33;;;;;;;13.73;40.90;102665.72;4903431;29;20177;-70
2022/11/12 11:56:49;;;;;;;3.92;2.55;;;;;;;13.78;41.10;102655.25;4906153;29;20055;-69
2022/11/12 11:59:49;;;;;;;3.83;2.42;;;;;;;13.84;40.88;102652.06;4910263;29;20051;-69
2022/11/12 12:02:57;;;;;;;3.67;2.33;;;;;;;13.89;40.72;102649.84;4902995;29;20052;-69
2022/11/12 12:05:50;;;;;;;3.92;2.30;;;;;;;13.95;41.19;102648.50;4906961;29;20861;-69
2022/11/12 12:08:53;;;;;;;3.47;2.30;;;;;;;14.00;41.04;102654.56;4903498;29;20051;-69
2022/11/12 12:11:49;;;;;;;3.65;2.50;;;;;;;14.07;41.23;102663.25;4904596;29;20473;-69
2022/11/12 12:14:48;;;;;;;4.78;2.28;;;;;;;14.17;40.85;102656.97;4909030;29;20560;-69
2022/11/12 12:17:47;;;;;;;4.35;2.53;;;;;;;14.22;39.99;102646.47;4906997;29;20055;-69
2022/11/12 12:20:42;;;;;;;4.72;2.72;;;;;;;14.28;40.55;102639.59;4903831;29;20054;-69
2022/11/12 12:23:34;;;;;;;4.00;2.42;;;;;;;14.33;40.38;102642.91;4898516;29;20044;-72
2022/11/12 12:26:25;;;;;;;3.60;2.42;;;;;;;14.36;40.21;102635.28;4902579;29;20047;-72
2022/11/12 12:29:16;;;;;;;4.45;2.50;;;;;;;14.39;40.28;102624.03;4906255;29;20115;-69
2022/11/12 12:32:11;;;;;;;3.72;2.13;;;;;;;14.46;39.84;102621.69;4901677;29;20067;-70
2022/11/12 12:35:03;;;;;;;3.75;2.38;;;;;;;14.49;39.74;102624.25;4906352;29;20063;-70
2022/11/12 12:37:59;;;;;;;3.30;2.40;;;;;;;14.53;40.20;102619.38;4897112;29;20063;-72
2022/11/12 12:40:50;;;;;;;4.03;2.45;;;;;;;14.58;40.58;102622.69;4896265;29;20100;-72
2022/11/12 12:43:44;;;;;;;4.20;2.83;;;;;;;14.62;40.21;102618.66;4906828;29;20051;-72
2022/11/12 12:46:35;;;;;;;3.38;2.15;;;;;;;14.64;40.14;102616.69;4891548;29;20159;-72
2022/11/12 12:49:30;;;;;;;4.32;2.20;;;;;;;14.69;39.33;102608.94;4909885;29;20052;-72
2022/11/12 12:52:16;;;;;;;3.03;2.13;;;;;;;14.69;40.21;102607.06;4900239;29;20449;-70
2022/11/12 12:55:05;;;;;;;3.35;2.28;;;;;;;14.74;39.90;102612.22;4902696;29;20131;-70
2022/11/12 12:57:59;;;;;;;4.63;2.25;;;;;;;14.77;39.35;102621.13;4899471;29;20063;-70
2022/11/12 13:00:50;;;;;;;;;;;;;;;14.49;40.22;102623.38;4899666;29;20062;-69
2022/11/12 13:03:51;;;;;;;4.10;2.25;;;;;;;14.74;38.60;102615.88;4896128;29;19930;-70
2022/11/12 13:06:52;;;;;;;4.25;2.15;;;;;;;14.76;39.14;102619.34;4899819;29;20409;-70
2022/11/12 13:09:39;;;;;;;3.90;2.17;;;;;;;14.72;39.11;102612.34;4902640;29;20128;-69
2022/11/12 13:12:59;;;;;;;3.50;2.45;;;;;;;14.72;38.38;102612.34;4901024;29;20090;-70
2022/11/12 13:15:49;;;;;;;4.10;2.67;;;;;;;14.67;38.93;102611.81;4894823;29;20184;-70
2022/11/12 13:18:59;;;;;;;3.40;2.28;;;;;;;14.65;38.77;102615.69;4899504;29;20043;-70
2022/11/12 13:21:47;;;;;;;3.72;2.40;;;;;;;14.62;38.86;102614.03;4894093;29;20410;-70
2022/11/12 13:25:00;;;;;;;3.75;2.30;;;;;;;14.61;38.68;102616.91;4898258;29;20120;-70
2022/11/12 13:28:13;;;;;;;3.90;2.20;;;;;;;14.53;39.04;102608.34;4903420;29;20047;-70
2022/11/12 13:31:01;;;;;;;3.72;2.38;;;;;;;14.53;39.55;102608.34;4894920;29;20072;-70
2022/11/12 13:33:48;;;;;;;4.10;2.63;;;;;;;14.56;39.36;102608.13;4903668;29;20071;-70
2022/11/12 13:36:35;;;;;;;3.97;2.40;;;;;;;14.55;39.61;102603.59;4899789;29;20099;-70
2022/11/12 13:39:23;;;;;;;4.43;2.50;;;;;;;14.54;39.39;102607.34;4899594;29;20142;-70
2022/11/12 13:45:22;;;;;;;3.33;2.00;;;;;;;14.51;39.13;102610.38;4903767;29;20051;-70
2022/11/12 13:48:13;;;;;;;4.00;2.05;;;;;;;14.49;39.02;102599.47;4901872;29;20185;-70